Right Out Straight
Just another beautiful day at the airways #EMB175

Just another beautiful day at the airways #EMB175

Princess Nokia - Young Girls
251 plays
sunset-wing:

Photography by sunset-winghttp://sunsetwing.com/
Tokyo International Airport (Haneda Airport) / 羽田空港

sunset-wing:

Photography by sunset-wing
http://sunsetwing.com/

Tokyo International Airport (Haneda Airport) / 羽田空港

redwoodartspace:

coldworldhardcore:

head over to www.lockinout.com to order the Consolation Prize 7” and Snail’s Pace demo! There’s a link to DL the Consolation Prize record for free as well. Consolation Prize features members of Cold World, Stick Together and Blacklisted. Snail’s Pace features members of Cold World and Mental. No big deal. 

Www.snailspace.bandcamp.com

redwoodartspace:

coldworldhardcore:

head over to www.lockinout.com to order the Consolation Prize 7” and Snail’s Pace demo! There’s a link to DL the Consolation Prize record for free as well. Consolation Prize features members of Cold World, Stick Together and Blacklisted. Snail’s Pace features members of Cold World and Mental. No big deal. 

Www.snailspace.bandcamp.com

musicofftheradio:

I found this at my local thrift store.

musicofftheradio:

I found this at my local thrift store.

Cruel Hand - Monument Square People
600 plays

thisishardcorefest:

Cruel Hand - Monument Square People

On a search for something less
I found myself with emptiness

I went to #TIHC, and all I got was this lousy #BOLD shirt

I went to #TIHC, and all I got was this lousy #BOLD shirt

#powertrip selfies hyfr (at Electric Factory)

#powertrip selfies hyfr (at Electric Factory)

@jeffperlin and the slumlords covered AC⚡️DC and I stage dove lmao (at Electric Factory)

@jeffperlin and the slumlords covered AC⚡️DC and I stage dove lmao (at Electric Factory)

@kharm is the spirit of Maine hardcore (at Electric Factory)

@kharm is the spirit of Maine hardcore (at Electric Factory)

"Look at that beautiful Philadelphia skyline" (at Electric Factory)

"Look at that beautiful Philadelphia skyline" (at Electric Factory)

KBGR 242153Z 33009KT 10SM FEW060 SCT250 24/12 A2981 (at KBGR	Bangor International Airport Bangor, Maine, Usa)

KBGR 242153Z 33009KT 10SM FEW060 SCT250 24/12 A2981 (at KBGR Bangor International Airport Bangor, Maine, Usa)